Time;durP1;ratioP1;P1;durP2;ratioP2;P2;SDS_P1;SDS_P2;PMS_P1;PMS_P2;Temp;Humidity;BMP_temperature;BMP_pressure;BME280_temperature;BME280_humidity;BME280_pressure;Samples;Min_cycle;Max_cycle;Signal;HPM_P1;HPM_P2
2021/09/08 00:00:55;;;;;;;27.10;15.63;;;18.10;99.90;;;;;;5061138;28;20286;-75
2021/09/08 00:03:23;;;;;;;25.93;16.83;;;18.10;99.90;;;;;;5060254;28;20742;-76
2021/09/08 00:05:50;;;;;;;25.33;16.13;;;18.00;99.90;;;;;;5061391;28;20207;-75
2021/09/08 00:08:17;;;;;;;28.93;16.83;;;18.10;99.90;;;;;;5060771;28;20204;-75
2021/09/08 00:10:44;;;;;;;23.37;15.90;;;18.10;99.90;;;;;;5060446;28;20204;-75
2021/09/08 00:13:11;;;;;;;26.17;16.27;;;18.00;99.90;;;;;;5062622;28;20200;-75
2021/09/08 00:15:38;;;;;;;24.70;16.23;;;17.90;99.90;;;;;;5064269;28;20582;-75
2021/09/08 00:18:05;;;;;;;29.10;17.00;;;17.80;99.90;;;;;;5062058;28;20197;-75
2021/09/08 00:20:33;;;;;;;33.90;17.23;;;17.80;99.90;;;;;;5062795;28;20203;-75
2021/09/08 00:23:00;;;;;;;26.20;16.80;;;17.70;99.90;;;;;;5061324;28;20247;-75
2021/09/08 00:25:27;;;;;;;27.80;16.27;;;17.70;99.90;;;;;;5053542;28;20292;-75
2021/09/08 00:27:53;;;;;;;26.47;16.13;;;17.70;99.90;;;;;;5061750;28;20295;-75
2021/09/08 00:30:20;;;;;;;28.83;16.07;;;17.80;99.90;;;;;;5063691;28;20295;-75
2021/09/08 00:32:47;;;;;;;32.17;16.53;;;17.80;99.90;;;;;;5053162;28;20296;-75
2021/09/08 00:35:14;;;;;;;30.23;17.03;;;17.70;99.90;;;;;;5054246;28;20197;-75
2021/09/08 00:37:43;;;;;;;28.33;17.53;;;17.60;99.90;;;;;;5055247;28;20298;-75
2021/09/08 00:40:11;;;;;;;29.90;17.80;;;17.50;99.90;;;;;;5055864;28;20636;-75
2021/09/08 00:42:38;;;;;;;27.23;17.43;;;17.50;99.90;;;;;;5061800;28;20302;-75
2021/09/08 00:45:06;;;;;;;29.20;17.53;;;17.50;99.90;;;;;;5077525;28;20290;-75
2021/09/08 00:47:33;;;;;;;28.47;16.73;;;17.50;99.90;;;;;;5053574;28;20210;-75
2021/09/08 00:50:00;;;;;;;28.70;16.43;;;17.50;99.90;;;;;;5052285;28;20664;-76
2021/09/08 00:52:27;;;;;;;29.73;16.50;;;17.50;99.90;;;;;;5071303;28;20234;-75
2021/09/08 00:54:56;;;;;;;27.53;16.70;;;17.50;99.90;;;;;;5079671;28;20210;-75
2021/09/08 00:57:23;;;;;;;28.57;17.20;;;17.50;99.90;;;;;;5058436;28;20200;-75
2021/09/08 00:59:50;;;;;;;25.77;16.57;;;17.40;99.90;;;;;;5056910;28;20295;-75
2021/09/08 01:02:17;;;;;;;25.60;17.00;;;17.30;99.90;;;;;;5057758;28;20283;-76
2021/09/08 01:04:45;;;;;;;26.83;17.50;;;17.30;99.90;;;;;;5056386;28;20200;-75
2021/09/08 01:07:12;;;;;;;27.90;17.43;;;17.30;99.90;;;;;;5055113;28;20291;-75
2021/09/08 01:09:39;;;;;;;28.57;17.00;;;17.40;99.90;;;;;;5057529;28;20283;-75
2021/09/08 01:12:07;;;;;;;29.83;18.33;;;17.40;99.90;;;;;;5060927;28;20195;-75
2021/09/08 01:14:34;;;;;;;29.30;17.17;;;17.40;99.90;;;;;;5062787;28;20196;-75
2021/09/08 01:17:01;;;;;;;28.10;17.47;;;17.40;99.90;;;;;;5057420;28;20307;-75
2021/09/08 01:19:28;;;;;;;28.70;17.03;;;17.40;99.90;;;;;;5058739;28;20294;-75
2021/09/08 01:21:55;;;;;;;29.73;17.37;;;17.30;99.90;;;;;;5056850;28;20656;-75
2021/09/08 01:24:24;;;;;;;26.87;17.67;;;17.30;99.90;;;;;;5058048;28;20232;-75
2021/09/08 01:26:53;;;;;;;31.20;18.13;;;17.30;99.90;;;;;;5056744;28;20203;-75
2021/09/08 01:29:20;;;;;;;33.43;17.53;;;17.30;99.90;;;;;;5057033;28;20207;-75
2021/09/08 01:31:53;;;;;;;27.70;18.07;;;17.30;99.90;;;;;;5057974;28;20566;-75
2021/09/08 01:34:20;;;;;;;28.33;18.03;;;17.20;99.90;;;;;;5057144;28;20208;-75
2021/09/08 01:36:47;;;;;;;32.40;18.30;;;17.20;99.90;;;;;;5058506;28;20243;-75
2021/09/08 01:39:18;;;;;;;32.30;18.17;;;17.10;99.90;;;;;;5066547;28;20210;-75
2021/09/08 01:41:47;;;;;;;35.47;18.70;;;17.10;99.90;;;;;;5072011;28;20687;-75
2021/09/08 01:44:18;;;;;;;32.23;18.40;;;17.00;99.90;;;;;;5074601;28;20227;-75
2021/09/08 01:46:45;;;;;;;26.20;17.60;;;17.00;99.90;;;;;;5074526;28;20199;-75
2021/09/08 01:49:12;;;;;;;29.50;17.63;;;16.90;99.90;;;;;;5074937;28;20213;-75
2021/09/08 01:51:39;;;;;;;27.17;16.90;;;16.90;99.90;;;;;;5074394;28;20680;-75
2021/09/08 01:54:06;;;;;;;27.63;17.80;;;17.00;99.90;;;;;;5074882;28;20203;-75
2021/09/08 01:56:33;;;;;;;29.93;18.20;;;17.00;99.90;;;;;;5074389;28;20731;-75
2021/09/08 01:59:02;;;;;;;27.07;18.00;;;17.00;99.90;;;;;;5074205;28;20199;-75
2021/09/08 02:01:28;;;;;;;30.47;18.00;;;16.90;99.90;;;;;;5074385;28;20298;-75
2021/09/08 02:03:56;;;;;;;33.10;18.57;;;17.10;99.90;;;;;;5073843;28;20770;-75
2021/09/08 02:06:25;;;;;;;30.13;18.90;;;17.20;99.90;;;;;;5074148;28;20663;-75
2021/09/08 02:08:52;;;;;;;36.30;19.73;;;17.10;99.90;;;;;;5074106;28;20203;-75
2021/09/08 02:11:19;;;;;;;32.40;19.30;;;17.00;99.90;;;;;;5074020;28;20678;-75
2021/09/08 02:13:46;;;;;;;30.53;19.77;;;17.00;99.90;;;;;;5074172;28;20214;-75
2021/09/08 02:16:20;;;;;;;32.10;18.60;;;16.90;99.90;;;;;;5074202;28;20201;-75
2021/09/08 02:18:47;;;;;;;30.70;19.13;;;17.00;99.90;;;;;;5074355;28;20230;-76
2021/09/08 02:21:14;;;;;;;33.13;20.20;;;17.00;99.90;;;;;;5074335;28;20287;-75
2021/09/08 02:23:41;;;;;;;30.67;18.70;;;17.00;99.90;;;;;;5073932;28;20310;-75
2021/09/08 02:26:07;;;;;;;31.13;19.70;;;16.90;99.90;;;;;;5074011;28;20282;-75
2021/09/08 02:28:34;;;;;;;37.30;19.93;;;17.00;99.90;;;;;;5073950;28;20314;-75
2021/09/08 02:31:01;;;;;;;30.33;18.40;;;16.90;99.90;;;;;;5073594;28;20661;-75
2021/09/08 02:33:29;;;;;;;36.97;20.20;;;16.90;99.90;;;;;;5073825;28;20207;-75
2021/09/08 02:35:56;;;;;;;32.13;20.70;;;16.90;99.90;;;;;;5073842;28;20211;-75
2021/09/08 02:38:23;;;;;;;34.77;21.77;;;17.00;99.90;;;;;;5073800;28;20235;-75
2021/09/08 02:40:50;;;;;;;33.83;20.93;;;16.90;99.90;;;;;;5073893;28;20208;-75
2021/09/08 02:43:17;;;;;;;39.43;21.57;;;16.80;99.90;;;;;;5073449;28;20648;-75
2021/09/08 02:45:44;;;;;;;41.13;21.17;;;16.70;99.90;;;;;;5073424;28;20214;-75
2021/09/08 02:48:11;;;;;;;37.57;21.67;;;16.70;99.90;;;;;;5073495;28;20199;-75
2021/09/08 02:50:39;;;;;;;37.83;22.43;;;16.70;99.90;;;;;;5073598;28;20286;-75
2021/09/08 02:53:06;;;;;;;38.23;22.13;;;16.60;99.90;;;;;;5073818;28;20200;-75
2021/09/08 02:55:33;;;;;;;36.37;21.43;;;16.50;99.90;;;;;;5073542;28;20199;-75
2021/09/08 02:58:00;;;;;;;38.57;21.93;;;16.40;99.90;;;;;;5073560;28;20231;-75
2021/09/08 03:00:27;;;;;;;37.37;21.97;;;16.50;99.90;;;;;;5073130;28;20283;-75
2021/09/08 03:02:54;;;;;;;37.07;22.30;;;16.60;99.90;;;;;;5073399;28;20210;-75
2021/09/08 03:05:21;;;;;;;39.13;21.93;;;16.50;99.90;;;;;;5073020;28;20203;-75
2021/09/08 03:07:49;;;;;;;41.63;23.10;;;16.40;99.90;;;;;;5073560;28;20706;-75
2021/09/08 03:10:16;;;;;;;41.33;22.00;;;16.30;99.90;;;;;;5073015;28;20576;-75
2021/09/08 03:12:43;;;;;;;39.87;21.30;;;16.30;99.90;;;;;;5072948;28;20723;-75
2021/09/08 03:15:10;;;;;;;36.20;22.10;;;16.30;99.90;;;;;;5073272;28;20606;-75
2021/09/08 03:17:37;;;;;;;36.40;20.97;;;16.10;99.90;;;;;;5073120;28;20570;-75
2021/09/08 03:20:05;;;;;;;38.13;22.27;;;16.00;99.90;;;;;;5072595;28;20199;-75
2021/09/08 03:22:32;;;;;;;39.10;21.17;;;16.00;99.90;;;;;;5073009;28;20282;-76
2021/09/08 03:25:00;;;;;;;35.93;21.17;;;16.00;99.90;;;;;;5073060;28;20219;-76
2021/09/08 03:27:27;;;;;;;36.57;21.47;;;16.10;99.90;;;;;;5072743;28;20656;-75
2021/09/08 03:29:54;;;;;;;38.30;20.60;;;16.10;99.90;;;;;;5072838;28;20286;-75
2021/09/08 03:32:21;;;;;;;30.50;20.07;;;16.10;99.90;;;;;;5072893;28;20237;-76
2021/09/08 03:34:47;;;;;;;37.47;21.90;;;16.00;99.90;;;;;;5072810;28;20278;-75
2021/09/08 03:37:15;;;;;;;36.33;20.77;;;16.00;99.90;;;;;;5073256;28;20288;-75
2021/09/08 03:39:41;;;;;;;35.17;21.10;;;16.00;99.90;;;;;;5072616;28;20286;-76
2021/09/08 03:42:10;;;;;;;38.00;21.47;;;16.00;99.90;;;;;;5073037;28;20211;-75
2021/09/08 03:44:36;;;;;;;38.30;21.70;;;15.90;99.90;;;;;;5072901;28;20234;-76
2021/09/08 03:47:04;;;;;;;32.03;20.73;;;15.80;99.90;;;;;;5079109;28;20727;-76
2021/09/08 03:49:30;;;;;;;35.83;20.97;;;15.80;99.90;;;;;;5081645;28;20286;-75
2021/09/08 03:51:57;;;;;;;36.23;22.20;;;15.70;99.90;;;;;;5072903;28;20597;-75
2021/09/08 03:54:24;;;;;;;38.57;22.33;;;15.70;99.90;;;;;;5072846;28;20287;-76
2021/09/08 03:56:51;;;;;;;37.87;22.27;;;15.60;99.90;;;;;;5072562;28;20207;-76
2021/09/08 03:59:21;;;;;;;39.53;21.53;;;15.70;99.90;;;;;;5072691;28;20670;-75
2021/09/08 04:01:48;;;;;;;40.47;22.37;;;15.70;99.90;;;;;;5072677;28;20235;-76
2021/09/08 04:04:14;;;;;;;37.37;22.10;;;15.70;99.90;;;;;;5072330;28;20226;-75
2021/09/08 04:06:44;;;;;;;36.23;21.30;;;15.60;99.90;;;;;;5072244;28;20559;-76
2021/09/08 04:09:11;;;;;;;36.77;21.87;;;15.60;99.90;;;;;;5072741;28;20553;-75
2021/09/08 04:11:38;;;;;;;37.27;21.43;;;15.60;99.90;;;;;;5072319;28;20294;-75
2021/09/08 04:14:05;;;;;;;41.80;22.67;;;15.50;99.90;;;;;;5072168;28;20206;-75
2021/09/08 04:16:33;;;;;;;39.70;22.47;;;15.50;99.90;;;;;;5072625;28;20213;-75
2021/09/08 04:19:00;;;;;;;37.43;21.37;;;15.50;99.90;;;;;;5071964;28;20278;-75
2021/09/08 04:21:26;;;;;;;36.00;22.27;;;15.50;99.90;;;;;;5072298;28;20238;-75
2021/09/08 04:23:53;;;;;;;40.13;22.33;;;15.50;99.90;;;;;;5072392;28;20227;-76
2021/09/08 04:26:20;;;;;;;43.23;22.30;;;15.70;99.90;;;;;;5072658;28;20290;-75
2021/09/08 04:28:47;;;;;;;38.27;21.80;;;15.60;99.90;;;;;;5072640;28;20203;-75
2021/09/08 04:31:14;;;;;;;42.87;21.60;;;15.70;99.90;;;;;;5072448;28;20200;-76
2021/09/08 04:33:42;;;;;;;37.07;22.40;;;15.70;99.90;;;;;;5075808;28;20361;-75
2021/09/08 04:36:09;;;;;;;39.73;22.90;;;15.80;99.90;;;;;;5076046;28;20278;-75
2021/09/08 04:38:38;;;;;;;45.67;24.30;;;15.70;99.90;;;;;;5076182;28;20205;-76
2021/09/08 04:41:05;;;;;;;39.07;22.50;;;15.70;99.90;;;;;;5075977;28;20199;-75
2021/09/08 04:43:32;;;;;;;38.07;23.10;;;15.70;99.90;;;;;;5075894;28;20203;-76
2021/09/08 04:45:59;;;;;;;42.20;23.47;;;15.60;99.90;;;;;;5075675;28;20203;-76
2021/09/08 04:48:25;;;;;;;42.67;23.70;;;15.40;99.90;;;;;;5075636;28;20235;-76
2021/09/08 04:50:54;;;;;;;42.03;23.17;;;15.30;99.90;;;;;;5076170;28;20545;-76
2021/09/08 04:53:21;;;;;;;40.80;22.77;;;15.30;99.90;;;;;;5075722;28;20208;-76
2021/09/08 04:55:47;;;;;;;44.60;23.67;;;15.30;99.90;;;;;;5076094;28;20296;-76
2021/09/08 04:58:14;;;;;;;42.93;21.83;;;15.30;99.90;;;;;;5075834;28;20297;-76
2021/09/08 05:00:41;;;;;;;39.20;23.00;;;15.20;99.90;;;;;;5075663;28;20672;-76
2021/09/08 05:03:08;;;;;;;41.33;24.23;;;15.30;99.90;;;;;;5075137;28;20207;-76
2021/09/08 05:05:35;;;;;;;43.97;24.57;;;15.30;99.90;;;;;;5070390;28;20219;-76
2021/09/08 05:08:04;;;;;;;43.83;23.37;;;15.20;99.90;;;;;;5072874;28;20294;-76
2021/09/08 05:10:31;;;;;;;40.93;23.97;;;15.30;99.90;;;;;;5069812;28;20204;-75
2021/09/08 05:12:58;;;;;;;40.80;23.77;;;15.30;99.90;;;;;;5072386;28;20199;-78
2021/09/08 05:15:25;;;;;;;46.87;23.10;;;15.20;99.90;;;;;;5069354;28;20298;-76
2021/09/08 05:17:52;;;;;;;41.13;22.83;;;15.30;99.90;;;;;;5071531;28;20656;-76
2021/09/08 05:20:18;;;;;;;40.10;24.07;;;15.30;99.90;;;;;;5072752;28;20205;-76
2021/09/08 05:22:45;;;;;;;49.20;24.23;;;15.30;99.90;;;;;;5065569;28;20206;-75
2021/09/08 05:25:14;;;;;;;45.07;22.77;;;15.40;99.90;;;;;;5070323;28;20204;-76
2021/09/08 05:27:41;;;;;;;44.67;22.87;;;15.40;99.90;;;;;;5069780;28;20627;-76
2021/09/08 05:30:09;;;;;;;40.47;22.93;;;15.50;99.90;;;;;;5063074;28;20207;-76
2021/09/08 05:32:36;;;;;;;40.00;23.20;;;15.50;99.90;;;;;;5066357;28;20634;-76
2021/09/08 05:35:02;;;;;;;43.10;23.07;;;15.40;99.90;;;;;;5068719;28;20691;-76
2021/09/08 05:37:29;;;;;;;41.73;22.73;;;15.50;99.90;;;;;;5070517;28;20261;-76
2021/09/08 05:39:56;;;;;;;44.67;23.83;;;15.50;99.90;;;;;;5062315;28;20249;-76
2021/09/08 05:42:24;;;;;;;45.43;23.67;;;15.50;99.90;;;;;;5070199;28;20282;-76
2021/09/08 05:44:51;;;;;;;39.40;22.13;;;15.50;99.90;;;;;;5068099;28;20227;-75
2021/09/08 05:47:18;;;;;;;42.20;24.73;;;15.60;99.90;;;;;;5067494;28;20225;-76
2021/09/08 05:49:45;;;;;;;44.40;24.23;;;15.60;99.90;;;;;;5065446;28;20207;-76
2021/09/08 05:52:12;;;;;;;42.00;23.30;;;15.70;99.90;;;;;;5068445;28;20210;-75
2021/09/08 05:54:39;;;;;;;40.83;23.17;;;15.70;99.90;;;;;;5071905;28;20195;-76
2021/09/08 05:57:06;;;;;;;40.00;23.93;;;15.60;99.90;;;;;;5071688;28;20210;-76
2021/09/08 05:59:34;;;;;;;44.83;23.77;;;15.70;99.90;;;;;;5071473;28;20261;-76
2021/09/08 06:02:01;;;;;;;40.27;23.83;;;15.70;99.90;;;;;;5059778;28;20209;-76
2021/09/08 06:04:28;;;;;;;43.93;23.40;;;15.80;99.90;;;;;;5068535;28;20221;-75
2021/09/08 06:06:57;;;;;;;44.57;22.83;;;15.90;99.90;;;;;;5068318;28;20220;-75
2021/09/08 06:09:24;;;;;;;41.90;23.10;;;15.90;99.90;;;;;;5066795;28;20203;-76
2021/09/08 06:11:51;;;;;;;45.57;23.70;;;16.00;99.90;;;;;;5060897;28;20218;-75
2021/09/08 06:14:18;;;;;;;40.23;22.40;;;16.10;99.90;;;;;;5065474;28;20566;-76
2021/09/08 06:16:46;;;;;;;40.77;22.67;;;16.10;99.90;;;;;;5060733;28;20212;-75
2021/09/08 06:19:13;;;;;;;40.70;22.00;;;16.20;99.90;;;;;;5063295;28;20210;-75
2021/09/08 06:21:40;;;;;;;38.83;22.07;;;16.30;99.90;;;;;;5063267;28;20284;-75
2021/09/08 06:24:07;;;;;;;34.30;22.30;;;16.40;99.90;;;;;;5064970;28;20656;-75
2021/09/08 06:26:33;;;;;;;35.03;21.27;;;16.40;99.90;;;;;;5073180;28;20206;-75
2021/09/08 06:29:00;;;;;;;36.10;21.17;;;16.50;99.90;;;;;;5064606;28;20196;-75
2021/09/08 06:31:28;;;;;;;33.43;20.50;;;16.60;99.90;;;;;;5069303;28;20299;-76
2021/09/08 06:33:56;;;;;;;34.57;20.73;;;16.80;99.90;;;;;;5065628;28;20215;-75
2021/09/08 06:36:23;;;;;;;34.80;20.33;;;16.90;99.90;;;;;;5072681;28;20280;-75
2021/09/08 06:38:50;;;;;;;32.93;20.53;;;16.90;99.90;;;;;;5072397;28;20566;-76
2021/09/08 06:41:17;;;;;;;34.87;20.60;;;16.90;99.90;;;;;;5073366;28;20208;-75
2021/09/08 06:43:45;;;;;;;33.70;19.40;;;17.00;99.90;;;;;;5073978;28;20199;-75
2021/09/08 06:46:12;;;;;;;36.90;20.77;;;17.00;99.90;;;;;;5073689;28;20569;-75
2021/09/08 06:48:39;;;;;;;30.43;19.93;;;17.10;99.90;;;;;;5086284;28;20203;-76
2021/09/08 06:51:07;;;;;;;33.93;20.33;;;17.30;99.90;;;;;;5073630;28;20210;-75
2021/09/08 06:53:34;;;;;;;32.13;20.60;;;17.30;99.90;;;;;;5073497;28;20567;-75
2021/09/08 06:56:01;;;;;;;32.63;19.53;;;17.40;99.90;;;;;;5072999;28;20202;-75
2021/09/08 06:58:28;;;;;;;32.37;19.80;;;17.60;99.90;;;;;;5073781;28;20206;-76
2021/09/08 07:00:55;;;;;;;34.30;19.23;;;17.60;99.90;;;;;;5073933;28;20264;-76
2021/09/08 07:03:22;;;;;;;31.27;18.90;;;17.60;99.90;;;;;;5073432;28;20537;-76
2021/09/08 07:05:48;;;;;;;31.77;19.40;;;17.70;99.90;;;;;;5073335;28;20314;-75
2021/09/08 07:08:17;;;;;;;30.43;17.83;;;17.80;99.90;;;;;;5073196;28;20690;-75
2021/09/08 07:10:43;;;;;;;30.23;18.63;;;18.00;99.90;;;;;;5073419;28;20200;-75
2021/09/08 07:13:10;;;;;;;29.53;17.90;;;18.10;99.90;;;;;;5073430;28;20195;-75
2021/09/08 07:15:37;;;;;;;30.03;17.40;;;18.20;99.90;;;;;;5073307;28;20196;-75
2021/09/08 07:18:04;;;;;;;29.87;16.77;;;18.30;99.90;;;;;;5073204;28;20610;-76
2021/09/08 07:20:31;;;;;;;30.40;17.03;;;18.40;99.90;;;;;;5073236;28;20290;-76
2021/09/08 07:22:58;;;;;;;25.40;17.00;;;18.60;99.90;;;;;;5073633;28;20223;-76
2021/09/08 07:25:26;;;;;;;28.27;17.07;;;18.60;99.90;;;;;;5073349;28;20306;-75
2021/09/08 07:27:53;;;;;;;28.90;16.87;;;18.70;99.90;;;;;;5073383;28;20295;-76
2021/09/08 07:30:20;;;;;;;30.33;16.80;;;18.70;99.90;;;;;;5073192;28;20199;-76
2021/09/08 07:32:47;;;;;;;30.43;17.23;;;18.80;99.90;;;;;;5073134;28;20211;-76
2021/09/08 07:35:14;;;;;;;27.37;16.50;;;18.90;99.90;;;;;;5073272;28;20222;-75
2021/09/08 07:37:41;;;;;;;32.50;17.10;;;18.90;99.90;;;;;;5073265;28;20199;-76
2021/09/08 07:40:10;;;;;;;29.37;16.63;;;19.00;99.90;;;;;;5072620;28;20195;-76
2021/09/08 07:42:39;;;;;;;30.90;17.63;;;19.10;99.90;;;;;;5068286;28;20206;-75
2021/09/08 07:45:07;;;;;;;30.10;17.13;;;19.20;99.90;;;;;;5072799;28;20229;-75
2021/09/08 07:47:34;;;;;;;28.77;16.60;;;19.20;99.90;;;;;;5072905;28;20656;-75
2021/09/08 07:50:01;;;;;;;29.17;16.87;;;19.30;99.90;;;;;;5072397;28;20237;-75
2021/09/08 07:52:27;;;;;;;31.60;16.47;;;19.40;99.90;;;;;;5072945;28;20201;-75
2021/09/08 07:54:54;;;;;;;26.53;16.67;;;19.50;99.90;;;;;;5073058;28;20191;-76
2021/09/08 07:57:21;;;;;;;26.97;17.30;;;19.50;99.90;;;;;;5071967;28;20544;-76
2021/09/08 07:59:49;;;;;;;28.87;16.27;;;19.70;99.90;;;;;;5072532;28;20295;-76
2021/09/08 08:02:16;;;;;;;27.20;16.90;;;19.80;99.90;;;;;;5072388;28;20204;-75
2021/09/08 08:04:43;;;;;;;26.57;16.17;;;19.90;99.90;;;;;;5072756;28;20247;-75
2021/09/08 08:07:10;;;;;;;26.80;15.33;;;20.10;99.90;;;;;;5074820;28;20199;-76
2021/09/08 08:09:41;;;;;;;23.80;15.60;;;20.20;99.90;;;;;;5076067;28;20202;-76
2021/09/08 08:12:08;;;;;;;25.33;15.73;;;20.20;99.90;;;;;;5076934;28;20253;-76
2021/09/08 08:14:35;;;;;;;25.47;16.83;;;20.30;99.90;;;;;;5076420;28;20558;-76
2021/09/08 08:17:04;;;;;;;31.37;16.83;;;20.40;99.90;;;;;;5070431;28;20205;-76
2021/09/08 08:19:30;;;;;;;30.20;16.10;;;20.60;99.90;;;;;;5076398;28;20206;-76
2021/09/08 08:21:57;;;;;;;28.00;15.83;;;20.70;99.90;;;;;;5076142;28;20286;-76
2021/09/08 08:24:24;;;;;;;25.27;15.90;;;20.70;99.90;;;;;;5076573;28;20242;-75
2021/09/08 08:26:51;;;;;;;33.63;15.13;;;20.90;99.90;;;;;;5076423;28;20227;-76
2021/09/08 08:29:18;;;;;;;22.33;14.70;;;21.00;99.90;;;;;;5076185;28;20282;-76
2021/09/08 08:31:45;;;;;;;27.48;16.13;;;21.10;99.90;;;;;;5076054;28;20303;-75
2021/09/08 08:34:13;;;;;;;25.63;14.75;;;21.10;99.90;;;;;;5076090;28;20716;-76
2021/09/08 08:36:40;;;;;;;20.80;14.60;;;21.20;99.90;;;;;;5076420;28;20287;-76
2021/09/08 08:39:06;;;;;;;26.03;16.10;;;21.30;99.90;;;;;;5074933;28;20694;-76
2021/09/08 08:41:33;;;;;;;26.77;14.75;;;21.50;99.90;;;;;;5076286;28;20206;-76
2021/09/08 08:44:02;;;;;;;28.45;15.45;;;21.60;99.90;;;;;;5075803;28;20234;-76
2021/09/08 08:46:29;;;;;;;25.95;14.68;;;21.70;99.90;;;;;;5075573;28;20578;-75
2021/09/08 08:48:56;;;;;;;20.02;14.75;;;21.90;99.90;;;;;;5076140;28;20290;-76
2021/09/08 08:51:24;;;;;;;21.70;15.38;;;21.90;99.90;;;;;;5067468;28;20219;-76
2021/09/08 08:53:51;;;;;;;25.52;14.45;;;22.10;99.90;;;;;;5069569;28;20204;-76
2021/09/08 08:56:18;;;;;;;21.88;14.27;;;22.70;99.90;;;;;;5069364;28;20200;-75
2021/09/08 08:58:45;;;;;;;19.33;13.52;;;24.00;99.90;;;;;;5067456;28;20207;-75
2021/09/08 09:01:17;;;;;;;21.95;12.70;;;25.30;99.90;;;;;;5069776;28;20286;-76
2021/09/08 09:03:54;;;;;;;19.23;12.57;;;26.80;99.90;;;;;;5072810;28;20265;-76
2021/09/08 09:06:25;;;;;;;21.83;12.68;;;27.90;99.90;;;;;;5074451;28;20215;-75
2021/09/08 09:08:59;;;;;;;16.40;12.27;;;28.70;99.90;;;;;;5071455;28;20250;-75
2021/09/08 09:11:26;;;;;;;19.65;12.10;;;29.10;99.90;;;;;;5073666;28;20203;-76
2021/09/08 09:13:53;;;;;;;18.17;11.95;;;29.30;99.90;;;;;;5070727;28;20618;-75
2021/09/08 09:16:23;;;;;;;15.02;11.60;;;29.30;99.90;;;;;;5054079;28;20197;-76
2021/09/08 09:18:50;;;;;;;18.33;11.75;;;29.00;99.90;;;;;;5054406;28;20287;-75
2021/09/08 09:21:18;;;;;;;14.60;11.50;;;29.80;99.90;;;;;;5055288;28;20204;-75
2021/09/08 09:23:47;;;;;;;20.67;11.05;;;29.90;99.90;;;;;;5055272;28;20200;-76
2021/09/08 09:26:15;;;;;;;13.63;11.48;;;30.40;99.90;;;;;;5055227;28;20704;-76
2021/09/08 09:28:43;;;;;;;15.40;10.80;;;30.70;99.90;;;;;;5055200;28;20200;-76
2021/09/08 09:31:15;;;;;;;13.98;9.95;;;31.10;99.90;;;;;;5055228;28;20204;-76
2021/09/08 09:33:46;;;;;;;14.38;10.07;;;31.70;99.90;;;;;;5054955;28;20208;-76
2021/09/08 09:36:19;;;;;;;12.13;9.73;;;31.50;99.90;;;;;;5055001;28;20298;-76
2021/09/08 09:38:49;;;;;;;12.98;9.23;;;31.40;99.90;;;;;;5055103;28;20231;-76
2021/09/08 09:41:30;;;;;;;16.10;9.57;;;32.40;99.90;;;;;;5055050;28;20287;-76
2021/09/08 09:43:56;;;;;;;14.57;9.00;;;32.60;99.90;;;;;;5054693;28;20657;-76
2021/09/08 09:46:23;;;;;;;13.52;9.65;;;33.00;99.90;;;;;;5058446;28;20220;-76
2021/09/08 09:48:50;;;;;;;19.60;9.05;;;32.90;99.90;;;;;;5073249;28;20207;-76
2021/09/08 09:51:17;;;;;;;14.73;8.77;;;33.20;99.90;;;;;;5078035;28;20375;-76
2021/09/08 09:53:44;;;;;;;10.77;9.05;;;33.10;99.90;;;;;;5060335;28;20204;-75
2021/09/08 09:56:13;;;;;;;12.80;9.15;;;33.40;99.90;;;;;;5067798;28;20656;-76
2021/09/08 09:58:40;;;;;;;13.57;8.30;;;33.40;99.90;;;;;;5059788;28;20234;-75
2021/09/08 10:01:07;;;;;;;14.68;8.88;;;33.50;99.90;;;;;;5070726;28;20577;-76
2021/09/08 10:03:34;;;;;;;14.40;8.15;;;33.80;99.90;;;;;;5073389;28;20570;-76
2021/09/08 10:06:01;;;;;;;13.25;8.80;;;33.90;99.90;;;;;;5062837;28;21015;-76
2021/09/08 10:08:32;;;;;;;12.77;8.65;;;34.80;99.90;;;;;;5081431;28;20285;-76
2021/09/08 10:11:04;;;;;;;11.23;8.60;;;35.40;99.90;;;;;;5079436;28;20670;-76
2021/09/08 10:13:40;;;;;;;10.90;8.57;;;35.20;99.90;;;;;;5075691;28;20199;-76
2021/09/08 10:16:07;;;;;;;9.05;8.10;;;35.50;99.90;;;;;;5082845;28;20199;-76
2021/09/08 10:18:36;;;;;;;16.90;8.32;;;35.20;99.90;;;;;;5074051;28;20510;-76
2021/09/08 10:21:04;;;;;;;9.85;8.35;;;35.40;99.90;;;;;;5055555;28;20287;-76
2021/09/08 10:23:34;;;;;;;15.55;8.18;;;35.40;99.90;;;;;;5056814;28;20210;-76
2021/09/08 10:26:11;;;;;;;14.80;8.90;;;34.80;99.90;;;;;;5055246;28;20579;-76
2021/09/08 10:28:41;;;;;;;14.68;8.82;;;33.90;99.90;;;;;;5079496;28;20190;-76
2021/09/08 10:31:09;;;;;;;15.43;9.23;;;34.20;99.90;;;;;;5080841;28;20290;-76
2021/09/08 10:33:37;;;;;;;10.43;8.63;;;34.30;99.90;;;;;;5083845;28;20210;-76
2021/09/08 10:36:04;;;;;;;10.93;8.93;;;34.00;99.90;;;;;;5079392;28;20546;-76
2021/09/08 10:38:33;;;;;;;10.00;8.73;;;33.70;99.90;;;;;;5087251;28;20202;-75
2021/09/08 10:41:04;;;;;;;11.18;9.82;;;33.90;99.90;;;;;;5084618;28;20209;-75
2021/09/08 10:43:32;;;;;;;13.50;8.80;;;33.90;99.90;;;;;;5073449;28;20283;-75
2021/09/08 10:46:01;;;;;;;13.07;9.45;;;34.20;99.90;;;;;;5072041;28;20229;-76
2021/09/08 10:48:36;;;;;;;10.45;8.75;;;33.80;99.90;;;;;;5073429;28;20638;-75
2021/09/08 10:51:04;;;;;;;12.50;9.23;;;33.10;99.90;;;;;;5073390;28;20201;-76
2021/09/08 10:53:32;;;;;;;14.27;9.57;;;32.90;99.90;;;;;;5073761;28;20287;-76
2021/09/08 10:56:00;;;;;;;13.15;9.15;;;33.00;99.90;;;;;;5066036;28;20195;-76
2021/09/08 10:58:56;;;;;;;10.70;8.35;;;32.50;99.90;;;;;;5050890;28;20198;-75
2021/09/08 11:01:25;;;;;;;12.10;9.07;;;32.70;99.90;;;;;;5069668;28;20210;-76
2021/09/08 11:03:52;;;;;;;10.95;8.68;;;32.80;99.90;;;;;;5069255;28;20203;-75
2021/09/08 11:06:32;;;;;;;12.05;8.75;;;32.90;99.90;;;;;;5068998;28;20227;-75
2021/09/08 11:09:02;;;;;;;19.15;9.10;;;32.80;99.90;;;;;;5072757;28;20282;-75
2021/09/08 11:11:29;;;;;;;14.48;9.40;;;33.50;99.90;;;;;;5071948;28;20678;-76
2021/09/08 11:13:56;;;;;;;12.30;8.63;;;34.10;99.90;;;;;;5066033;28;20718;-75
2021/09/08 11:16:26;;;;;;;15.02;8.82;;;33.80;99.90;;;;;;5070979;28;20634;-75
2021/09/08 11:18:54;;;;;;;16.60;9.20;;;33.50;99.90;;;;;;5070743;28;20210;-75
2021/09/08 11:21:23;;;;;;;12.30;8.70;;;33.80;99.90;;;;;;5071506;28;20210;-75
2021/09/08 11:23:57;;;;;;;16.08;9.88;;;33.50;99.90;;;;;;5070958;28;20281;-75
2021/09/08 11:26:27;;;;;;;11.75;8.32;;;33.00;99.90;;;;;;5071452;28;20276;-75
2021/09/08 11:29:03;;;;;;;13.55;8.85;;;33.00;99.90;;;;;;5066624;28;20203;-75
2021/09/08 11:31:36;;;;;;;12.82;8.68;;;33.40;99.90;;;;;;5064895;28;20711;-75
2021/09/08 11:34:04;;;;;;;11.02;8.18;;;33.10;99.90;;;;;;5069879;28;20234;-75
2021/09/08 11:36:34;;;;;;;12.80;8.02;;;32.90;99.90;;;;;;5071142;28;20274;-76
2021/09/08 11:39:01;;;;;;;11.48;8.20;;;32.90;99.90;;;;;;5065850;28;20287;-75
2021/09/08 11:41:30;;;;;;;13.32;8.43;;;32.30;99.90;;;;;;5070854;28;20195;-75
2021/09/08 11:44:02;;;;;;;9.68;7.78;;;31.90;99.90;;;;;;5065050;28;20690;-75
2021/09/08 11:46:31;;;;;;;8.15;7.28;;;32.00;99.90;;;;;;5071498;28;20219;-76
2021/09/08 11:49:07;;;;;;;11.13;7.88;;;32.30;99.90;;;;;;5071742;28;20191;-75
2021/09/08 11:51:36;;;;;;;9.38;7.28;;;31.60;99.90;;;;;;5072494;28;20274;-75
2021/09/08 11:54:04;;;;;;;10.05;7.50;;;31.00;99.90;;;;;;5069731;28;20206;-76
2021/09/08 11:56:32;;;;;;;12.00;8.30;;;31.10;99.90;;;;;;5066295;28;20711;-76
2021/09/08 11:59:03;;;;;;;10.80;7.18;;;31.10;99.90;;;;;;5067354;28;20218;-75
2021/09/08 12:01:33;;;;;;;9.63;7.50;;;30.70;99.90;;;;;;5069303;28;20199;-75
2021/09/08 12:04:01;;;;;;;9.80;7.28;;;30.50;99.90;;;;;;5054791;28;20684;-75
2021/09/08 12:06:30;;;;;;;15.07;7.55;;;30.30;99.90;;;;;;5062515;28;20219;-75
2021/09/08 12:09:02;;;;;;;9.75;7.40;;;29.90;99.90;;;;;;5071690;28;20282;-75
2021/09/08 12:11:54;;;;;;;11.77;7.60;;;29.60;99.90;;;;;;5071095;28;20184;-75
2021/09/08 12:14:28;;;;;;;7.97;7.18;;;29.50;99.90;;;;;;5064478;28;20200;-75
2021/09/08 12:16:57;;;;;;;10.05;7.22;;;30.00;99.90;;;;;;5071681;28;20191;-75
2021/09/08 12:19:32;;;;;;;9.18;7.65;;;30.10;99.90;;;;;;5071022;28;20253;-75
2021/09/08 12:22:06;;;;;;;8.13;7.32;;;30.50;99.90;;;;;;5058514;28;20320;-76
2021/09/08 12:24:36;;;;;;;9.70;6.85;;;31.10;99.90;;;;;;5067966;28;20195;-75
2021/09/08 12:27:03;;;;;;;8.48;6.43;;;30.90;99.90;;;;;;5067448;28;20227;-75
2021/09/08 12:29:30;;;;;;;8.02;6.53;;;30.30;99.90;;;;;;5071681;28;20204;-75
2021/09/08 12:32:00;;;;;;;8.07;6.75;;;30.10;99.90;;;;;;5074598;28;20207;-75
2021/09/08 12:34:45;;;;;;;11.43;6.70;;;30.60;99.90;;;;;;5073348;28;20647;-75